createdAt,value
2018-10-05T00:01:02.909Z,12.36
2018-10-05T00:03:30.794Z,12.48
2018-10-05T00:05:58.569Z,12.17
2018-10-05T00:08:26.525Z,11.85
2018-10-05T00:10:54.333Z,11.80
2018-10-05T00:13:22.102Z,11.87
2018-10-05T00:15:49.860Z,11.86
2018-10-05T00:18:17.605Z,11.83
2018-10-05T00:20:45.406Z,11.61
2018-10-05T00:23:13.219Z,11.51
2018-10-05T00:25:41.017Z,11.64
2018-10-05T00:28:08.797Z,11.60
2018-10-05T00:30:36.570Z,11.63
2018-10-05T00:33:04.374Z,11.35
2018-10-05T00:35:32.121Z,11.46
2018-10-05T00:37:59.952Z,11.33
2018-10-05T00:40:27.753Z,11.22
2018-10-05T00:42:55.507Z,11.22
2018-10-05T00:45:23.242Z,11.07
2018-10-05T00:47:51.078Z,11.05
2018-10-05T00:50:18.846Z,11.03
2018-10-05T00:52:46.607Z,10.95
2018-10-05T00:55:14.377Z,11.01
2018-10-05T00:57:42.153Z,11.18
2018-10-05T01:00:10.005Z,11.21
2018-10-05T01:02:37.770Z,11.17
2018-10-05T01:05:05.665Z,11.10
2018-10-05T01:07:33.434Z,11.11
2018-10-05T01:10:01.314Z,11.18
2018-10-05T01:12:29.057Z,11.13
2018-10-05T01:14:56.833Z,11.10
2018-10-05T01:17:24.687Z,11.12
2018-10-05T01:19:52.457Z,11.16
2018-10-05T01:22:20.250Z,11.15
2018-10-05T01:24:48.077Z,11.14
2018-10-05T01:27:15.818Z,11.17
2018-10-05T01:29:43.577Z,11.00
2018-10-05T01:32:11.377Z,10.66
2018-10-05T01:34:39.094Z,10.77
2018-10-05T01:37:06.885Z,10.70
2018-10-05T01:39:34.650Z,10.59
2018-10-05T01:42:02.506Z,10.72
2018-10-05T01:44:30.300Z,10.41
2018-10-05T01:46:58.107Z,10.27
2018-10-05T01:49:25.865Z,10.24
2018-10-05T01:51:53.706Z,10.27
2018-10-05T01:54:21.750Z,10.35
2018-10-05T01:56:49.449Z,10.45
2018-10-05T01:59:17.239Z,10.47
2018-10-05T02:01:45.001Z,10.61
2018-10-05T02:04:12.726Z,10.60
2018-10-05T02:06:40.493Z,10.55
2018-10-05T02:09:08.294Z,10.62
2018-10-05T02:11:36.009Z,10.79
2018-10-05T02:14:03.791Z,10.88
2018-10-05T02:16:31.626Z,11.02
2018-10-05T02:18:59.382Z,10.95
2018-10-05T02:21:27.138Z,10.85
2018-10-05T02:23:54.902Z,10.70
2018-10-05T02:26:22.634Z,10.62
2018-10-05T02:28:50.391Z,10.69
2018-10-05T02:31:18.193Z,10.55
2018-10-05T02:33:45.974Z,10.54
2018-10-05T02:36:13.778Z,10.40
2018-10-05T02:38:41.602Z,10.31
2018-10-05T02:41:09.355Z,10.42
2018-10-05T02:43:37.129Z,10.25
2018-10-05T02:46:04.972Z,10.10
2018-10-05T02:48:32.725Z,10.13
2018-10-05T02:51:00.516Z,10.08
2018-10-05T02:53:28.305Z,10.07
2018-10-05T02:55:56.058Z,10.00
2018-10-05T02:58:23.918Z,10.07
2018-10-05T03:01:02.926Z,10.09
2018-10-05T03:03:30.669Z,10.06
2018-10-05T03:05:58.465Z,9.98
2018-10-05T03:08:26.181Z,9.82
2018-10-05T03:10:53.973Z,9.83
2018-10-05T03:13:21.874Z,9.85
2018-10-05T03:15:49.766Z,9.91
2018-10-05T03:18:17.578Z,10.14
2018-10-05T03:20:45.373Z,10.43
2018-10-05T03:23:13.193Z,10.50
2018-10-05T03:25:40.965Z,10.96
2018-10-05T03:28:08.762Z,10.96
2018-10-05T03:30:36.526Z,11.01
2018-10-05T03:33:04.305Z,10.98
2018-10-05T03:35:32.113Z,10.79
2018-10-05T03:37:59.932Z,10.66
2018-10-05T03:40:27.658Z,10.49
2018-10-05T03:42:55.386Z,10.47
2018-10-05T03:45:23.207Z,10.28
2018-10-05T03:47:50.933Z,10.22
2018-10-05T03:50:18.760Z,10.14
2018-10-05T03:52:46.538Z,9.96
2018-10-05T03:55:14.270Z,9.98
2018-10-05T03:57:42.134Z,9.95
2018-10-05T04:00:09.984Z,9.82
2018-10-05T04:02:37.754Z,9.78
2018-10-05T04:05:05.586Z,9.78
2018-10-05T04:07:33.345Z,9.76
2018-10-05T04:10:01.110Z,9.77
2018-10-05T04:12:28.873Z,9.90
2018-10-05T04:14:56.699Z,10.12
2018-10-05T04:17:24.386Z,10.46
2018-10-05T04:19:52.103Z,10.71
2018-10-05T04:22:23.502Z,11.21
2018-10-05T04:24:51.219Z,11.39
2018-10-05T04:27:19.060Z,10.98
2018-10-05T04:29:46.797Z,10.96
2018-10-05T04:32:14.585Z,11.09
2018-10-05T04:34:42.383Z,11.26
2018-10-05T04:37:10.177Z,11.12
2018-10-05T04:39:37.895Z,11.48
2018-10-05T04:42:05.633Z,11.53
2018-10-05T04:44:33.429Z,11.51
2018-10-05T04:47:01.206Z,11.71
2018-10-05T04:49:29.014Z,11.87
2018-10-05T04:51:56.918Z,12.13
2018-10-05T04:54:24.655Z,12.38
2018-10-05T04:56:52.482Z,13.46
2018-10-05T04:59:20.241Z,14.22
2018-10-05T05:01:47.999Z,14.83
2018-10-05T05:04:15.798Z,15.06
2018-10-05T05:06:43.578Z,15.64
2018-10-05T05:09:11.362Z,15.19
2018-10-05T05:11:39.091Z,15.02
2018-10-05T05:14:07.111Z,15.24
2018-10-05T05:16:34.797Z,15.28
2018-10-05T05:19:02.573Z,16.17
2018-10-05T05:21:30.585Z,16.95
2018-10-05T05:23:58.317Z,16.50
2018-10-05T05:26:26.426Z,15.96
2018-10-05T05:28:54.333Z,15.37
2018-10-05T05:31:22.370Z,14.39
2018-10-05T05:33:50.188Z,14.85
2018-10-05T05:36:18.010Z,15.19
2018-10-05T05:38:45.757Z,15.72
2018-10-05T05:41:13.558Z,15.81
2018-10-05T05:43:41.289Z,16.08
2018-10-05T05:46:09.042Z,16.22
2018-10-05T05:48:36.815Z,16.04
2018-10-05T05:51:04.730Z,16.82
2018-10-05T05:53:32.509Z,16.85
2018-10-05T05:56:00.392Z,16.59
2018-10-05T05:58:28.232Z,16.84
2018-10-05T06:00:56.002Z,16.76
2018-10-05T06:03:23.766Z,16.89
2018-10-05T06:05:52.466Z,16.69
2018-10-05T06:08:20.291Z,16.56
2018-10-05T06:10:48.129Z,16.42
2018-10-05T06:13:15.897Z,15.97
2018-10-05T06:15:43.721Z,15.95
2018-10-05T06:18:11.508Z,15.64
2018-10-05T06:20:39.322Z,15.28
2018-10-05T06:23:07.166Z,14.96
2018-10-05T06:25:34.929Z,15.05
2018-10-05T06:28:02.685Z,15.41
2018-10-05T06:30:30.407Z,15.89
2018-10-05T06:32:58.195Z,16.41
2018-10-05T06:35:26.017Z,16.68
2018-10-05T06:37:53.860Z,16.23
2018-10-05T06:40:21.622Z,16.77
2018-10-05T06:42:49.402Z,17.03
2018-10-05T06:45:17.136Z,16.70
2018-10-05T06:47:44.893Z,16.99
2018-10-05T06:50:12.690Z,16.89
2018-10-05T06:52:40.495Z,17.08
2018-10-05T06:55:08.373Z,17.30
2018-10-05T06:57:36.141Z,17.60
2018-10-05T07:00:04.283Z,17.58
2018-10-05T07:02:32.077Z,17.47
2018-10-05T07:04:59.903Z,17.50
2018-10-05T07:07:27.677Z,18.18
2018-10-05T07:09:55.493Z,18.22
2018-10-05T07:12:23.315Z,18.25
2018-10-05T07:14:51.022Z,18.61
2018-10-05T07:17:18.867Z,18.05
2018-10-05T07:19:46.615Z,18.34
2018-10-05T07:22:14.451Z,18.79
2018-10-05T07:24:42.243Z,18.84
2018-10-05T07:27:10.046Z,18.52
2018-10-05T07:29:37.816Z,18.50
2018-10-05T07:32:05.869Z,18.71
2018-10-05T07:34:33.712Z,19.32
2018-10-05T07:37:01.575Z,19.77
2018-10-05T07:39:29.251Z,19.73
2018-10-05T07:41:57.042Z,19.98
2018-10-05T07:44:24.830Z,20.11
2018-10-05T07:46:52.602Z,20.31
2018-10-05T07:49:20.445Z,20.25
2018-10-05T07:51:48.260Z,20.28
2018-10-05T07:54:15.971Z,20.42
2018-10-05T07:56:43.832Z,20.52
2018-10-05T07:59:11.590Z,20.43
2018-10-05T08:01:39.342Z,19.57
2018-10-05T08:04:07.173Z,19.03
2018-10-05T08:06:34.949Z,19.43
2018-10-05T08:09:02.876Z,19.56
2018-10-05T08:11:30.694Z,20.47
2018-10-05T08:13:58.426Z,20.64
2018-10-05T08:16:26.225Z,20.22
2018-10-05T08:18:53.964Z,20.09
2018-10-05T08:21:21.718Z,20.47
2018-10-05T08:23:49.914Z,20.48
2018-10-05T08:26:17.817Z,19.87
2018-10-05T08:28:45.594Z,19.80
2018-10-05T08:31:13.378Z,19.82
2018-10-05T08:33:41.261Z,20.15
2018-10-05T08:36:09.030Z,20.43
2018-10-05T08:38:36.853Z,20.08
2018-10-05T08:41:04.822Z,20.55
2018-10-05T08:43:32.730Z,21.21
2018-10-05T08:46:00.603Z,21.32
2018-10-05T08:48:28.461Z,20.65
2018-10-05T08:50:56.241Z,20.75
2018-10-05T08:53:24.010Z,20.63
2018-10-05T08:55:52.014Z,21.16
2018-10-05T08:58:19.825Z,21.71
2018-10-05T09:00:47.682Z,22.11
2018-10-05T09:03:15.517Z,21.96
2018-10-05T09:05:43.397Z,21.87
2018-10-05T09:08:11.086Z,21.93
2018-10-05T09:10:38.890Z,21.97
2018-10-05T09:13:06.681Z,22.14
2018-10-05T09:15:34.469Z,22.54
2018-10-05T09:18:02.239Z,23.41
2018-10-05T09:20:29.989Z,23.81
2018-10-05T09:22:57.887Z,23.70
2018-10-05T09:25:25.690Z,22.85
2018-10-05T09:27:53.437Z,22.99
2018-10-05T09:30:21.211Z,23.24
2018-10-05T09:32:48.985Z,23.39
2018-10-05T09:35:16.785Z,24.20
2018-10-05T09:37:44.577Z,24.71
2018-10-05T09:40:12.439Z,23.94
2018-10-05T09:42:40.266Z,24.42
2018-10-05T09:45:08.074Z,24.17
2018-10-05T09:47:35.903Z,23.81
2018-10-05T09:50:03.746Z,23.66
2018-10-05T09:52:31.583Z,23.79
2018-10-05T09:54:59.456Z,23.58
2018-10-05T09:57:27.319Z,23.39
2018-10-05T09:59:55.136Z,23.75
2018-10-05T10:02:28.249Z,24.38
2018-10-05T10:04:56.055Z,24.70
2018-10-05T10:07:23.871Z,24.78
2018-10-05T10:09:51.766Z,25.26
2018-10-05T10:12:19.549Z,24.96
2018-10-05T10:14:47.343Z,25.10
2018-10-05T10:17:15.154Z,25.75
2018-10-05T10:19:43.062Z,26.70
2018-10-05T10:22:10.837Z,27.19
2018-10-05T10:24:38.613Z,26.39
2018-10-05T10:27:06.375Z,26.27
2018-10-05T10:29:34.194Z,25.68
2018-10-05T10:32:02.026Z,26.14
2018-10-05T10:34:29.903Z,26.07
2018-10-05T10:36:57.602Z,26.57
2018-10-05T10:39:25.425Z,26.83
2018-10-05T10:41:53.214Z,26.22
2018-10-05T10:44:20.946Z,26.47
2018-10-05T10:46:48.798Z,26.31
2018-10-05T10:49:16.579Z,27.13
2018-10-05T10:51:44.334Z,27.37
2018-10-05T10:54:12.165Z,26.16
2018-10-05T10:56:39.906Z,25.98
2018-10-05T10:59:07.711Z,26.05
2018-10-05T11:01:35.562Z,26.43
2018-10-05T11:04:03.390Z,26.07
2018-10-05T11:06:31.144Z,26.64
2018-10-05T11:08:59.054Z,26.85
2018-10-05T11:11:26.850Z,27.09
2018-10-05T11:13:54.674Z,27.68
2018-10-05T11:16:22.457Z,27.24
2018-10-05T11:18:50.162Z,27.62
2018-10-05T11:21:17.912Z,27.33
2018-10-05T11:23:45.677Z,27.50
2018-10-05T11:26:13.365Z,28.20
2018-10-05T11:28:41.089Z,28.21
2018-10-05T11:31:08.947Z,28.42
2018-10-05T11:33:36.721Z,27.97
2018-10-05T11:36:04.468Z,27.30
2018-10-05T11:38:32.222Z,27.18
2018-10-05T11:40:59.926Z,26.84
2018-10-05T11:43:27.620Z,26.80
2018-10-05T11:45:55.538Z,27.30
2018-10-05T11:48:23.322Z,27.25
2018-10-05T11:50:51.131Z,27.57
2018-10-05T11:53:18.999Z,27.32
2018-10-05T11:55:46.795Z,27.11
2018-10-05T11:58:14.542Z,27.50
2018-10-05T12:00:42.367Z,27.00
2018-10-05T12:03:10.148Z,27.31
2018-10-05T12:05:37.874Z,27.93
2018-10-05T12:08:05.688Z,28.35
2018-10-05T12:10:33.441Z,28.41
2018-10-05T12:13:01.166Z,28.88
2018-10-05T12:15:28.995Z,28.00
2018-10-05T12:17:56.718Z,28.72
2018-10-05T12:20:24.505Z,29.41
2018-10-05T12:22:52.474Z,29.00
2018-10-05T12:25:20.241Z,28.78
2018-10-05T12:27:47.953Z,28.15
2018-10-05T12:30:15.891Z,28.56
2018-10-05T12:32:43.613Z,29.27
2018-10-05T12:35:11.313Z,28.81
2018-10-05T12:37:39.145Z,28.59
2018-10-05T12:40:06.907Z,27.34
2018-10-05T12:42:34.682Z,26.99
2018-10-05T12:45:02.542Z,27.19
2018-10-05T12:47:30.262Z,27.22
2018-10-05T12:49:58.030Z,27.79
2018-10-05T12:52:25.854Z,27.53
2018-10-05T12:54:53.649Z,26.85
2018-10-05T12:57:21.378Z,27.29
2018-10-05T12:59:49.150Z,27.65
2018-10-05T13:02:16.893Z,27.80
2018-10-05T13:04:44.721Z,27.57
2018-10-05T13:07:12.575Z,27.88
2018-10-05T13:09:40.315Z,27.83
2018-10-05T13:12:08.069Z,27.82
2018-10-05T13:14:35.866Z,27.54
2018-10-05T13:17:03.703Z,26.86
2018-10-05T13:19:31.446Z,27.13
2018-10-05T13:21:59.314Z,26.96
2018-10-05T13:24:27.038Z,27.06
2018-10-05T13:27:00.423Z,27.74
2018-10-05T13:29:28.219Z,28.07
2018-10-05T13:31:55.987Z,26.53
2018-10-05T13:34:23.787Z,26.97
2018-10-05T13:36:51.530Z,26.24
2018-10-05T13:39:19.303Z,26.02
2018-10-05T13:41:47.108Z,26.20
2018-10-05T13:44:14.881Z,26.33
2018-10-05T13:46:42.641Z,26.55
2018-10-05T13:49:10.454Z,26.57
2018-10-05T13:51:38.212Z,26.66
2018-10-05T13:54:06.300Z,26.63
2018-10-05T13:56:34.582Z,26.37
2018-10-05T13:59:02.431Z,26.22
2018-10-05T14:01:30.109Z,25.96
2018-10-05T14:03:57.919Z,25.84
2018-10-05T14:06:25.630Z,26.52
2018-10-05T14:08:53.378Z,26.65
2018-10-05T14:11:21.141Z,26.63
2018-10-05T14:13:48.855Z,26.33
2018-10-05T14:16:16.554Z,26.15
2018-10-05T14:18:44.334Z,26.01
2018-10-05T14:21:12.082Z,26.20
2018-10-05T14:23:39.829Z,25.67
2018-10-05T14:26:07.642Z,25.77
2018-10-05T14:28:35.357Z,25.45
2018-10-05T14:31:03.116Z,25.40
2018-10-05T14:33:30.945Z,25.45
2018-10-05T14:35:58.742Z,25.48
2018-10-05T14:38:26.474Z,25.18
2018-10-05T14:40:54.299Z,24.96
2018-10-05T14:43:22.034Z,25.16
2018-10-05T14:45:49.906Z,25.47
2018-10-05T14:48:17.608Z,25.39
2018-10-05T14:50:45.330Z,25.16
2018-10-05T14:53:13.077Z,25.09
2018-10-05T14:55:40.886Z,25.18
2018-10-05T14:58:08.638Z,25.16
2018-10-05T15:00:36.390Z,24.80
2018-10-05T15:03:04.178Z,24.78
2018-10-05T15:05:31.904Z,24.80
2018-10-05T15:07:59.635Z,24.51
2018-10-05T15:10:27.409Z,24.59
2018-10-05T15:12:55.193Z,24.37
2018-10-05T15:15:22.925Z,24.26
2018-10-05T15:17:50.717Z,24.02
2018-10-05T15:20:18.505Z,23.92
2018-10-05T15:22:46.246Z,23.75
2018-10-05T15:25:14.029Z,23.21
2018-10-05T15:27:41.783Z,22.88
2018-10-05T15:30:09.566Z,22.45
2018-10-05T15:32:37.668Z,22.28
2018-10-05T15:35:05.479Z,21.86
2018-10-05T15:37:33.215Z,21.52
2018-10-05T15:40:00.971Z,21.28
2018-10-05T15:42:28.722Z,21.21
2018-10-05T15:44:56.466Z,21.18
2018-10-05T15:47:24.315Z,20.70
2018-10-05T15:49:52.070Z,20.14
2018-10-05T15:52:19.782Z,19.98
2018-10-05T15:54:47.501Z,19.85
2018-10-05T15:57:15.281Z,19.56
2018-10-05T15:59:43.054Z,19.52
2018-10-05T16:02:10.858Z,19.50
2018-10-05T16:04:38.695Z,19.19
2018-10-05T16:07:06.523Z,19.10
2018-10-05T16:09:34.302Z,19.08
2018-10-05T16:12:02.045Z,18.93
2018-10-05T16:14:29.876Z,18.65
2018-10-05T16:16:57.694Z,18.43
2018-10-05T16:19:26.920Z,18.22
2018-10-05T16:21:54.662Z,18.14
2018-10-05T16:24:55.920Z,18.10
2018-10-05T16:27:23.591Z,18.05
2018-10-05T16:29:51.338Z,18.05
2018-10-05T16:32:19.134Z,17.94
2018-10-05T16:34:46.977Z,17.75
2018-10-05T16:37:14.872Z,17.77
2018-10-05T16:39:42.725Z,17.73
2018-10-05T16:42:10.545Z,17.59
2018-10-05T16:44:38.313Z,17.44
2018-10-05T16:47:06.102Z,17.40
2018-10-05T16:49:33.798Z,17.30
2018-10-05T16:52:01.594Z,17.17
2018-10-05T16:54:29.370Z,17.31
2018-10-05T16:56:57.102Z,17.63
2018-10-05T16:59:24.901Z,17.86
2018-10-05T17:01:52.706Z,18.27
2018-10-05T17:04:20.574Z,18.48
2018-10-05T17:06:48.371Z,18.85
2018-10-05T17:09:16.251Z,19.08
2018-10-05T17:11:45.021Z,19.09
2018-10-05T17:14:12.818Z,19.03
2018-10-05T17:16:40.717Z,19.15
2018-10-05T17:19:08.474Z,18.90
2018-10-05T17:21:36.269Z,19.06
2018-10-05T17:24:04.156Z,18.99
2018-10-05T17:26:31.958Z,18.86
2018-10-05T17:28:59.818Z,19.11
2018-10-05T17:31:27.673Z,18.90
2018-10-05T17:33:55.502Z,19.02
2018-10-05T17:36:23.325Z,18.76
2018-10-05T17:38:51.082Z,18.88
2018-10-05T17:41:18.862Z,18.57
2018-10-05T17:43:46.697Z,18.41
2018-10-05T17:46:14.577Z,18.53
2018-10-05T17:48:42.314Z,18.55
2018-10-05T17:51:10.158Z,18.55
2018-10-05T17:53:38.104Z,18.34
2018-10-05T17:56:06.245Z,18.18
2018-10-05T17:58:34.628Z,18.25
2018-10-05T18:01:02.872Z,18.08
2018-10-05T18:03:30.903Z,17.98
2018-10-05T18:05:58.726Z,18.14
2018-10-05T18:08:27.781Z,17.94
2018-10-05T18:10:56.418Z,17.89
2018-10-05T18:13:26.180Z,17.90
2018-10-05T18:15:56.304Z,17.82
2018-10-05T18:18:25.910Z,17.94
2018-10-05T18:20:54.713Z,17.73
2018-10-05T18:23:23.460Z,17.81
2018-10-05T18:25:52.690Z,17.62
2018-10-05T18:28:23.155Z,17.66
2018-10-05T18:30:53.172Z,17.59
2018-10-05T18:33:22.892Z,17.48
2018-10-05T18:35:51.670Z,17.41
2018-10-05T18:38:21.474Z,17.45
2018-10-05T18:40:51.319Z,17.19
2018-10-05T18:43:20.779Z,17.33
2018-10-05T18:45:50.592Z,17.34
2018-10-05T18:48:19.673Z,17.31
2018-10-05T18:50:49.215Z,17.23
2018-10-05T18:53:19.664Z,17.17
2018-10-05T18:55:50.196Z,17.26
2018-10-05T18:58:18.624Z,17.23
2018-10-05T19:00:48.131Z,17.20
2018-10-05T19:03:18.808Z,17.20
2018-10-05T19:05:48.626Z,17.08
2018-10-05T19:08:17.426Z,17.04
2018-10-05T19:10:46.638Z,16.92
2018-10-05T19:13:16.360Z,16.94
2018-10-05T19:15:45.489Z,16.91
2018-10-05T19:18:15.759Z,16.91
2018-10-05T19:20:45.016Z,16.72
2018-10-05T19:23:14.720Z,16.75
2018-10-05T19:25:44.002Z,16.67
2018-10-05T19:28:13.318Z,16.74
2018-10-05T19:30:42.077Z,16.81
2018-10-05T19:33:09.891Z,16.90
2018-10-05T19:35:37.687Z,17.13
2018-10-05T19:38:05.490Z,17.24
2018-10-05T19:40:33.554Z,17.26
2018-10-05T19:43:01.532Z,17.50
2018-10-05T19:45:29.393Z,17.57
2018-10-05T19:47:57.207Z,17.45
2018-10-05T19:50:25.019Z,16.98
2018-10-05T19:52:52.764Z,16.91
2018-10-05T19:55:20.759Z,16.84
2018-10-05T19:57:48.559Z,16.76
2018-10-05T20:00:16.418Z,16.42
2018-10-05T20:02:44.501Z,16.44
2018-10-05T20:05:12.254Z,16.39
2018-10-05T20:07:39.974Z,16.27
2018-10-05T20:10:07.841Z,16.12
2018-10-05T20:12:35.622Z,15.98
2018-10-05T20:15:03.441Z,15.85
2018-10-05T20:17:31.270Z,15.91
2018-10-05T20:19:59.060Z,15.86
2018-10-05T20:22:26.758Z,15.73
2018-10-05T20:24:54.522Z,15.60
2018-10-05T20:27:22.278Z,15.39
2018-10-05T20:29:50.023Z,15.38
2018-10-05T20:32:17.795Z,15.48
2018-10-05T20:34:45.523Z,15.48
2018-10-05T20:37:13.375Z,15.42
2018-10-05T20:39:41.062Z,15.15
2018-10-05T20:42:08.831Z,14.96
2018-10-05T20:44:36.624Z,14.96
2018-10-05T20:47:04.442Z,14.95
2018-10-05T20:49:32.218Z,14.91
2018-10-05T20:51:59.953Z,14.79
2018-10-05T20:54:27.699Z,14.85
2018-10-05T20:56:55.522Z,14.81
2018-10-05T20:59:23.245Z,15.01
2018-10-05T21:01:51.192Z,15.14
2018-10-05T21:04:19.009Z,15.05
2018-10-05T21:06:46.898Z,15.04
2018-10-05T21:09:14.644Z,15.04
2018-10-05T21:11:42.418Z,14.97
2018-10-05T21:14:10.250Z,15.00
2018-10-05T21:16:38.039Z,15.04
2018-10-05T21:19:06.173Z,15.06
2018-10-05T21:21:33.915Z,14.90
2018-10-05T21:24:01.757Z,15.03
2018-10-05T21:26:29.539Z,15.02
2018-10-05T21:28:57.605Z,14.95
2018-10-05T21:31:25.447Z,14.89
2018-10-05T21:33:53.223Z,14.85
2018-10-05T21:36:21.026Z,14.93
2018-10-05T21:38:48.971Z,14.89
2018-10-05T21:41:16.674Z,14.85
2018-10-05T21:43:44.436Z,14.87
2018-10-05T21:46:12.278Z,14.81
2018-10-05T21:48:40.007Z,14.78
2018-10-05T21:51:07.713Z,14.76
2018-10-05T21:53:35.826Z,14.67
2018-10-05T21:56:03.600Z,14.65
2018-10-05T21:58:31.426Z,14.58
2018-10-05T22:00:59.270Z,14.72
2018-10-05T22:03:29.847Z,14.97
2018-10-05T22:05:57.658Z,15.02
2018-10-05T22:08:25.466Z,15.22
2018-10-05T22:10:53.222Z,15.67
2018-10-05T22:13:21.018Z,15.64
2018-10-05T22:15:48.837Z,15.51
2018-10-05T22:18:16.614Z,15.10
2018-10-05T22:20:44.379Z,14.97
2018-10-05T22:23:12.216Z,14.86
2018-10-05T22:25:40.007Z,14.77
2018-10-05T22:28:07.834Z,14.82
2018-10-05T22:30:35.710Z,14.99
2018-10-05T22:33:03.538Z,14.84
2018-10-05T22:35:31.469Z,14.59
2018-10-05T22:37:59.341Z,14.73
2018-10-05T22:40:27.162Z,14.88
2018-10-05T22:42:54.989Z,15.03
2018-10-05T22:45:22.902Z,15.33
2018-10-05T22:47:50.715Z,15.57
2018-10-05T22:50:18.537Z,15.64
2018-10-05T22:52:46.406Z,15.66
2018-10-05T22:55:14.226Z,15.68
2018-10-05T22:57:42.042Z,15.65
2018-10-05T23:00:09.985Z,15.53
2018-10-05T23:02:37.841Z,15.36
2018-10-05T23:05:05.731Z,15.28
2018-10-05T23:07:33.622Z,15.29
2018-10-05T23:10:01.469Z,15.38
2018-10-05T23:12:29.293Z,15.27
2018-10-05T23:14:57.170Z,15.24
2018-10-05T23:17:25.009Z,15.31
2018-10-05T23:19:52.825Z,15.19
2018-10-05T23:22:20.680Z,15.26
2018-10-05T23:24:48.497Z,15.03
2018-10-05T23:27:17.266Z,15.06
2018-10-05T23:29:45.133Z,15.07
2018-10-05T23:32:12.957Z,15.19
2018-10-05T23:34:40.778Z,15.23
2018-10-05T23:37:08.654Z,14.99
2018-10-05T23:39:36.474Z,15.11
2018-10-05T23:42:04.297Z,14.99
2018-10-05T23:44:32.169Z,14.99
2018-10-05T23:46:59.990Z,14.89
2018-10-05T23:49:27.843Z,14.71
2018-10-05T23:51:55.804Z,14.73
2018-10-05T23:54:23.615Z,14.67
2018-10-05T23:56:51.421Z,14.93
2018-10-05T23:59:19.302Z,14.79
